Time;durP1;ratioP1;P1;durP2;ratioP2;P2;SDS_P1;SDS_P2;PMS_P1;PMS_P2;Temp;Humidity;BMP_temperature;BMP_pressure;BME280_temperature;BME280_humidity;BME280_pressure;Samples;Min_cycle;Max_cycle;Signal;HPM_P1;HPM_P2
2022/11/14 00:00:41;;;;;;;;;;;8.00;99.90;;;;;;4951887;28;20075;-84
2022/11/14 00:03:08;;;;;;;35.10;17.90;;;7.00;99.90;;;;;;4952231;28;19964;-85
2022/11/14 00:05:39;;;;;;;33.55;18.73;;;7.30;99.90;;;;;;4936511;28;20420;-85
2022/11/14 00:08:05;;;;;;;32.83;19.52;;;8.10;99.90;;;;;;4952189;28;20050;-85
2022/11/14 00:10:30;;;;;;;33.65;19.73;;;7.00;99.90;;;;;;4929173;28;20039;-84
2022/11/14 00:12:56;;;;;;;33.78;20.60;;;8.20;99.90;;;;;;4951347;28;20049;-84
2022/11/14 00:15:21;;;;;;;33.55;19.83;;;7.80;99.90;;;;;;4952075;28;20126;-85
2022/11/14 00:17:47;;;;;;;34.65;20.60;;;7.90;99.90;;;;;;4952194;28;20043;-84
2022/11/14 00:20:13;;;;;;;35.03;21.58;;;7.10;99.90;;;;;;4952826;28;20466;-84
2022/11/14 00:22:39;;;;;;;34.97;20.65;;;7.10;99.90;;;;;;4970745;28;20488;-84
2022/11/14 00:25:05;;;;;;;34.45;20.60;;;8.10;99.90;;;;;;4972886;28;20074;-84
2022/11/14 00:27:30;;;;;;;32.83;20.67;;;7.10;99.90;;;;;;4956436;28;20039;-85
2022/11/14 00:29:56;;;;;;;32.15;20.35;;;7.10;99.90;;;;;;4937273;28;20253;-85
2022/11/14 00:32:22;;;;;;;34.53;20.85;;;7.10;99.90;;;;;;4954780;28;20185;-85
2022/11/14 00:34:48;;;;;;;35.92;21.60;;;7.20;99.90;;;;;;4964414;28;20039;-84
2022/11/14 00:37:14;;;;;;;34.55;20.08;;;7.70;99.90;;;;;;4940591;28;20046;-83
2022/11/14 00:39:40;;;;;;;36.13;21.08;;;7.20;99.90;;;;;;4956177;28;20035;-83
2022/11/14 00:42:05;;;;;;;34.78;20.23;;;8.70;99.90;;;;;;4939648;28;20117;-84
2022/11/14 00:44:31;;;;;;;35.33;20.88;;;7.20;99.90;;;;;;4939360;28;20055;-84
2022/11/14 00:46:57;;;;;;;34.75;20.90;;;7.20;99.90;;;;;;4954638;28;20062;-84
2022/11/14 00:49:22;;;;;;;35.83;21.40;;;8.10;99.90;;;;;;4936962;29;20118;-84
2022/11/14 00:51:48;;;;;;;36.25;20.83;;;8.30;99.90;;;;;;4932365;28;20416;-84
2022/11/14 00:54:14;;;;;;;34.45;20.95;;;7.20;99.90;;;;;;4931173;28;20035;-84
2022/11/14 00:56:39;;;;;;;35.83;21.25;;;7.20;99.90;;;;;;4924516;28;20042;-84
2022/11/14 00:59:05;;;;;;;35.42;21.30;;;7.20;99.90;;;;;;4956203;28;20047;-84
2022/11/14 01:01:31;;;;;;;36.72;21.73;;;7.20;99.90;;;;;;4939578;28;20054;-84
2022/11/14 01:03:57;;;;;;;40.58;23.40;;;8.30;99.90;;;;;;4955111;28;20530;-85
2022/11/14 01:06:22;;;;;;;37.35;22.75;;;7.20;99.90;;;;;;4939126;28;20043;-85
2022/11/14 01:08:50;;;;;;;39.17;23.88;;;7.20;99.90;;;;;;4956086;28;20035;-84
2022/11/14 01:11:18;;;;;;;37.05;22.42;;;7.70;99.90;;;;;;4939331;28;20268;-84
2022/11/14 01:13:45;;;;;;;41.40;24.20;;;;;;;;;;4954967;28;20050;-84
2022/11/14 01:16:11;;;;;;;39.38;24.55;;;7.20;99.90;;;;;;4968803;28;20117;-85
2022/11/14 01:18:38;;;;;;;42.60;26.52;;;7.50;99.90;;;;;;4955763;28;20189;-84
2022/11/14 01:21:09;;;;;;;37.53;24.20;;;7.80;99.90;;;;;;4939554;28;20202;-84
2022/11/14 01:23:35;;;;;;;42.97;26.63;;;7.20;99.90;;;;;;4954907;28;20456;-84
2022/11/14 01:26:06;;;;;;;43.72;27.42;;;7.90;99.90;;;;;;4953407;28;20075;-84
2022/11/14 01:28:32;;;;;;;45.03;28.52;;;8.00;99.90;;;;;;4971262;28;20039;-84
2022/11/14 01:31:30;;;;;;;43.42;27.15;;;5.80;99.90;;;;;;4971647;28;20046;-85
2022/11/14 01:33:56;;;;;;;47.05;28.08;;;7.10;99.90;;;;;;4914240;28;20570;-85
2022/11/14 01:36:22;;;;;;;44.20;28.40;;;7.10;99.90;;;;;;4936507;28;20093;-84
2022/11/14 01:38:51;;;;;;;48.28;28.63;;;7.30;99.90;;;;;;4938779;28;20427;-84
2022/11/14 01:41:17;;;;;;;47.72;29.20;;;7.70;99.90;;;;;;4955041;28;20114;-85
2022/11/14 01:43:43;;;;;;;47.85;29.33;;;7.00;99.90;;;;;;4938472;28;20131;-84
2022/11/14 01:46:26;;;;;;;47.70;29.90;;;6.90;99.90;;;;;;4922666;28;20398;-84
2022/11/14 01:48:58;;;;;;;;;;;6.90;99.90;;;;;;4953402;28;20353;-84
2022/11/14 01:51:26;;;;;;;46.97;29.67;;;6.90;99.90;;;;;;4954459;28;19918;-84
2022/11/14 01:53:54;;;;;;;50.35;30.23;;;6.90;99.90;;;;;;4955341;28;20053;-84
2022/11/14 01:56:28;;;;;;;50.67;30.08;;;6.90;99.90;;;;;;4953940;28;20057;-84
2022/11/14 01:59:04;;;;;;;49.67;30.17;;;6.80;99.90;;;;;;4970423;28;20051;-84
2022/11/14 02:01:33;;;;;;;49.75;29.90;;;6.80;99.90;;;;;;4955102;28;20094;-84
2022/11/14 02:04:01;;;;;;;53.15;31.75;;;8.10;99.90;;;;;;4953891;28;20049;-84
2022/11/14 02:06:29;;;;;;;50.17;29.88;;;8.00;99.90;;;;;;4947885;28;20070;-84
2022/11/14 02:08:56;;;;;;;51.20;30.95;;;7.90;99.90;;;;;;4951498;28;20035;-84
2022/11/14 02:11:22;;;;;;;48.83;29.92;;;7.90;99.90;;;;;;4970650;28;20141;-84
2022/11/14 02:13:48;;;;;;;49.47;29.67;;;7.00;99.90;;;;;;4971020;28;20090;-83
2022/11/14 02:16:14;;;;;;;51.05;31.30;;;7.90;99.90;;;;;;4933807;29;20496;-84
2022/11/14 02:18:40;;;;;;;50.97;30.65;;;7.90;99.90;;;;;;4934293;28;20062;-84
2022/11/14 02:21:06;;;;;;;47.45;29.08;;;8.10;99.90;;;;;;4938724;28;20050;-84
2022/11/14 02:23:32;;;;;;;48.63;28.52;;;6.80;99.90;;;;;;4967593;28;20043;-85
2022/11/14 02:25:58;;;;;;;51.38;29.45;;;7.80;99.90;;;;;;4953611;28;20125;-84
2022/11/14 02:28:24;;;;;;;47.20;28.75;;;6.80;99.90;;;;;;4937045;28;20539;-84
2022/11/14 02:30:50;;;;;;;51.05;29.70;;;6.80;99.90;;;;;;4968866;28;20046;-84
2022/11/14 02:33:16;;;;;;;48.78;28.17;;;6.70;99.90;;;;;;4969398;28;20506;-84
2022/11/14 02:35:42;;;;;;;46.40;27.63;;;7.50;99.90;;;;;;4935017;28;20254;-84
2022/11/14 02:38:08;;;;;;;49.85;28.00;;;;;;;;;;4926575;28;20042;-85
2022/11/14 02:40:33;;;;;;;46.45;27.70;;;6.70;99.90;;;;;;4938573;28;20046;-84
2022/11/14 02:43:00;;;;;;;47.15;27.70;;;7.50;99.90;;;;;;4937897;28;20492;-84
2022/11/14 02:45:26;;;;;;;48.40;28.48;;;6.80;99.90;;;;;;4969240;28;20391;-84
2022/11/14 02:47:51;;;;;;;44.92;27.15;;;6.80;99.90;;;;;;4953036;28;20142;-83
2022/11/14 02:50:17;;;;;;;46.72;26.58;;;8.30;99.90;;;;;;4936236;28;20571;-84
2022/11/14 02:52:43;;;;;;;49.13;28.90;;;6.80;99.90;;;;;;4938166;28;20054;-84
2022/11/14 02:55:09;;;;;;;47.28;28.60;;;7.10;99.90;;;;;;4937239;28;20337;-83
2022/11/14 02:57:35;;;;;;;47.13;28.85;;;7.30;99.90;;;;;;4943253;29;20106;-84
2022/11/14 03:00:00;;;;;;;43.90;26.88;;;7.80;99.90;;;;;;4935060;28;20105;-84
2022/11/14 03:02:26;;;;;;;51.85;28.73;;;8.00;99.90;;;;;;4937780;28;20046;-84
2022/11/14 03:04:52;;;;;;;44.33;27.67;;;8.40;99.90;;;;;;4952949;28;20097;-84
2022/11/14 03:07:18;;;;;;;43.05;25.70;;;7.00;99.90;;;;;;4953037;28;20046;-84
2022/11/14 03:09:44;;;;;;;46.47;27.88;;;8.60;99.90;;;;;;4941668;28;20074;-84
2022/11/14 03:12:09;;;;;;;43.80;26.75;;;7.00;99.90;;;;;;4952062;28;20039;-84
2022/11/14 03:14:35;;;;;;;47.63;27.63;;;8.00;99.90;;;;;;4937471;28;20141;-84
2022/11/14 03:17:01;;;;;;;44.97;26.30;;;7.00;99.90;;;;;;4951369;28;20099;-83
2022/11/14 03:19:27;;;;;;;48.38;29.05;;;7.00;99.90;;;;;;4937296;28;20550;-84
2022/11/14 03:21:52;;;;;;;44.42;27.02;;;7.10;99.90;;;;;;4952024;28;20046;-85
2022/11/14 03:24:18;;;;;;;45.53;28.90;;;7.10;99.90;;;;;;4950728;28;20122;-84
2022/11/14 03:26:44;;;;;;;43.35;26.27;;;7.10;99.90;;;;;;4936874;28;20034;-84
2022/11/14 03:29:09;;;;;;;44.22;27.33;;;7.10;99.90;;;;;;4953549;28;20043;-84
2022/11/14 03:31:35;;;;;;;43.53;27.45;;;7.10;99.90;;;;;;4952511;28;20055;-84
2022/11/14 03:34:01;;;;;;;46.22;27.70;;;7.90;99.90;;;;;;4952947;28;20129;-83
2022/11/14 03:36:26;;;;;;;42.85;25.90;;;7.10;99.90;;;;;;4937820;28;20051;-84
2022/11/14 03:38:52;;;;;;;44.55;27.08;;;7.10;99.90;;;;;;4926983;29;20580;-84
2022/11/14 03:41:17;;;;;;;43.75;27.02;;;8.10;99.90;;;;;;4934252;28;20755;-84
2022/11/14 03:43:43;;;;;;;44.00;27.58;;;8.40;99.90;;;;;;4953373;28;20480;-84
2022/11/14 03:46:09;;;;;;;45.45;27.83;;;7.10;99.90;;;;;;4936920;28;20039;-84
2022/11/14 03:48:34;;;;;;;48.47;27.90;;;8.60;99.90;;;;;;4920887;28;20034;-84
2022/11/14 03:51:00;;;;;;;40.47;25.95;;;7.30;99.90;;;;;;4937409;28;20114;-83
2022/11/14 03:53:27;;;;;;;43.50;27.17;;;7.10;99.90;;;;;;4936355;28;20491;-84
2022/11/14 03:55:53;;;;;;;39.72;25.80;;;7.10;99.90;;;;;;4922127;28;20519;-83
2022/11/14 03:58:18;;;;;;;43.47;26.98;;;7.10;99.90;;;;;;4956148;28;20039;-83
2022/11/14 04:00:44;;;;;;;45.50;27.60;;;7.60;99.90;;;;;;4941282;28;20097;-84
2022/11/14 04:03:10;;;;;;;46.33;28.70;;;8.70;99.90;;;;;;4956232;28;20177;-83
2022/11/14 04:05:36;;;;;;;42.67;27.85;;;7.50;99.90;;;;;;4956469;28;20034;-83
2022/11/14 04:08:05;;;;;;;49.50;28.75;;;7.10;99.90;;;;;;4936360;29;20114;-84
2022/11/14 04:10:31;;;;;;;44.53;28.55;;;7.10;99.90;;;;;;4940704;28;20520;-84
2022/11/14 04:12:57;;;;;;;43.05;28.00;;;7.20;99.90;;;;;;4972910;28;20105;-85
2022/11/14 04:15:22;;;;;;;46.75;28.67;;;7.10;99.90;;;;;;4941287;28;20062;-84
2022/11/14 04:17:48;;;;;;;45.60;29.50;;;7.90;99.90;;;;;;4940265;28;20043;-84
2022/11/14 04:20:14;;;;;;;45.72;28.70;;;7.10;99.90;;;;;;4939951;28;20055;-83
2022/11/14 04:22:40;;;;;;;45.38;29.58;;;7.10;99.90;;;;;;4925343;28;20047;-84
2022/11/14 04:25:07;;;;;;;47.83;29.73;;;7.10;99.90;;;;;;4957202;28;20043;-84
2022/11/14 04:27:33;;;;;;;46.33;29.35;;;7.10;99.90;;;;;;4955425;28;20110;-84
2022/11/14 04:29:59;;;;;;;49.25;31.52;;;9.00;99.90;;;;;;4955841;28;20070;-83
2022/11/14 04:32:24;;;;;;;47.88;30.73;;;7.10;99.90;;;;;;4955385;28;20838;-83
2022/11/14 04:34:50;;;;;;;45.90;29.77;;;7.40;99.90;;;;;;4955887;28;20126;-84
2022/11/14 04:37:16;;;;;;;49.55;31.02;;;8.20;99.90;;;;;;4939751;28;20514;-84
2022/11/14 04:39:41;;;;;;;45.70;28.95;;;8.50;99.90;;;;;;4972551;28;20499;-84
2022/11/14 04:42:07;;;;;;;44.60;28.75;;;7.60;99.90;;;;;;4954699;28;20054;-84
2022/11/14 04:44:33;;;;;;;43.78;28.02;;;7.10;99.90;;;;;;4954629;28;20043;-83
2022/11/14 04:46:58;;;;;;;40.25;26.52;;;7.10;99.90;;;;;;4955345;28;20550;-82
2022/11/14 04:49:24;;;;;;;42.67;26.58;;;8.50;99.90;;;;;;4940274;28;20050;-84
2022/11/14 04:51:49;;;;;;;42.70;26.88;;;7.80;99.90;;;;;;4936244;29;20255;-83
2022/11/14 04:54:15;;;;;;;43.63;27.23;;;7.70;99.90;;;;;;4938711;28;20049;-84
2022/11/14 04:56:41;;;;;;;42.00;26.10;;;8.50;99.90;;;;;;4940294;28;20085;-83
2022/11/14 04:59:06;;;;;;;38.90;26.13;;;7.00;99.90;;;;;;4954346;28;20062;-84
2022/11/14 05:01:32;;;;;;;42.03;26.10;;;8.30;99.90;;;;;;4939325;28;20453;-84
2022/11/14 05:03:58;;;;;;;42.28;26.42;;;8.30;99.90;;;;;;4939039;28;20039;-84
2022/11/14 05:06:24;;;;;;;42.45;26.15;;;7.00;99.90;;;;;;4972150;28;20045;-84
2022/11/14 05:08:49;;;;;;;43.58;27.38;;;7.00;99.90;;;;;;4938430;28;20559;-84
2022/11/14 05:11:17;;;;;;;41.10;26.23;;;7.00;99.90;;;;;;4939861;28;20496;-84
2022/11/14 05:13:43;;;;;;;41.25;26.00;;;7.00;99.90;;;;;;4954910;28;20046;-84
2022/11/14 05:16:09;;;;;;;44.95;27.20;;;7.00;99.90;;;;;;4956051;28;20124;-84
2022/11/14 05:18:36;;;;;;;40.80;25.48;;;7.00;99.90;;;;;;4936730;28;20055;-84
2022/11/14 05:21:02;;;;;;;42.83;27.15;;;7.00;99.90;;;;;;4955888;28;20385;-84
2022/11/14 05:23:28;;;;;;;43.85;27.02;;;8.00;99.90;;;;;;4970518;28;20048;-84
2022/11/14 05:26:05;;;;;;;42.78;26.33;;;9.00;99.90;;;;;;4955824;28;20045;-84
2022/11/14 05:28:31;;;;;;;42.85;26.63;;;8.30;99.90;;;;;;4954899;28;20105;-84
2022/11/14 05:31:07;;;;;;;41.80;26.50;;;7.00;99.90;;;;;;4955435;28;20491;-83
2022/11/14 05:33:33;;;;;;;44.35;26.63;;;7.00;99.90;;;;;;4968173;28;20035;-84
2022/11/14 05:36:04;;;;;;;44.10;26.90;;;6.90;99.90;;;;;;4954832;28;20550;-84
2022/11/14 05:38:30;;;;;;;43.50;26.60;;;6.90;99.90;;;;;;4969287;28;20058;-84
2022/11/14 05:40:56;;;;;;;45.70;28.25;;;6.90;99.90;;;;;;4935938;28;20045;-84
2022/11/14 05:43:21;;;;;;;44.45;27.42;;;6.80;99.90;;;;;;4935750;28;20039;-84
2022/11/14 05:45:47;;;;;;;42.92;25.95;;;6.80;99.90;;;;;;4953593;28;20038;-84
2022/11/14 05:48:13;;;;;;;46.58;27.02;;;6.80;99.90;;;;;;4934025;28;20061;-83
2022/11/14 05:50:38;;;;;;;45.38;27.70;;;7.00;99.90;;;;;;4937411;28;20039;-83
2022/11/14 05:53:04;;;;;;;43.25;26.95;;;8.50;99.90;;;;;;4938213;28;20158;-84
2022/11/14 05:55:30;;;;;;;43.40;26.60;;;6.80;99.90;;;;;;4952386;28;20085;-85
2022/11/14 05:57:59;;;;;;;46.03;26.90;;;6.80;99.90;;;;;;4934954;28;20408;-84
2022/11/14 06:00:26;;;;;;;45.00;26.95;;;6.80;99.90;;;;;;4953883;28;20059;-85
2022/11/14 06:02:55;;;;;;;43.47;25.27;;;6.80;99.90;;;;;;4954121;28;20078;-85
2022/11/14 06:05:21;;;;;;;43.58;26.05;;;7.20;99.90;;;;;;4954564;28;20680;-84
2022/11/14 06:07:53;;;;;;;47.95;27.48;;;6.80;99.90;;;;;;4967790;28;20054;-84
2022/11/14 06:10:19;;;;;;;47.55;27.15;;;6.80;99.90;;;;;;4951916;28;20088;-84
2022/11/14 06:12:44;;;;;;;45.33;25.80;;;7.80;99.90;;;;;;4951542;28;20038;-83
2022/11/14 06:15:10;;;;;;;44.92;26.08;;;7.90;99.90;;;;;;4937940;28;20039;-83
2022/11/14 06:17:36;;;;;;;45.33;26.73;;;6.70;99.90;;;;;;4947349;28;20039;-83
2022/11/14 06:20:01;;;;;;;43.47;27.02;;;7.10;99.90;;;;;;4947615;28;20074;-82
2022/11/14 06:22:27;;;;;;;46.03;27.02;;;6.70;99.90;;;;;;4949878;28;20046;-83
2022/11/14 06:24:52;;;;;;;42.40;24.95;;;7.40;99.90;;;;;;4933331;28;20057;-83
2022/11/14 06:27:18;;;;;;;43.10;25.90;;;7.10;99.90;;;;;;4966226;28;20122;-83
2022/11/14 06:29:44;;;;;;;44.60;26.17;;;6.70;99.90;;;;;;4933148;28;20046;-83
2022/11/14 06:32:09;;;;;;;41.90;25.58;;;7.20;99.90;;;;;;4949689;28;20619;-83
2022/11/14 06:34:35;;;;;;;43.78;26.70;;;7.20;99.90;;;;;;4949168;28;20054;-83
2022/11/14 06:37:01;;;;;;;46.63;26.88;;;7.80;99.90;;;;;;4917565;28;20039;-83
2022/11/14 06:39:26;;;;;;;45.05;26.63;;;7.40;99.90;;;;;;4932361;28;21820;-83
2022/11/14 06:41:52;;;;;;;46.28;26.42;;;6.60;99.90;;;;;;4949103;28;20049;-83
2022/11/14 06:44:18;;;;;;;46.80;28.02;;;8.20;99.90;;;;;;4948773;28;20035;-84
2022/11/14 06:46:43;;;;;;;47.38;27.17;;;7.80;99.90;;;;;;4930264;28;20502;-84
2022/11/14 06:49:09;;;;;;;44.20;26.25;;;6.90;99.90;;;;;;4932456;28;20476;-84
2022/11/14 06:51:34;;;;;;;45.75;26.42;;;6.60;99.90;;;;;;4937658;28;20507;-84
2022/11/14 06:54:00;;;;;;;47.83;27.17;;;7.10;99.90;;;;;;4937890;28;20046;-83
2022/11/14 06:56:26;;;;;;;46.63;26.58;;;6.60;99.90;;;;;;4937822;28;20043;-83
2022/11/14 06:58:51;;;;;;;48.55;27.17;;;7.60;99.90;;;;;;4953158;28;20039;-83
2022/11/14 07:01:21;;;;;;;44.72;26.00;;;6.60;99.90;;;;;;4920012;28;20385;-83
2022/11/14 07:03:47;;;;;;;44.00;26.38;;;7.80;99.90;;;;;;4934453;28;20034;-82
2022/11/14 07:06:33;;;;;;;48.85;27.42;;;7.50;99.90;;;;;;4937358;28;20069;-83
2022/11/14 07:08:59;;;;;;;47.05;27.00;;;6.60;99.90;;;;;;4953639;28;20145;-84
2022/11/14 07:11:28;;;;;;;43.50;25.17;;;7.50;99.90;;;;;;4937285;28;20480;-84
2022/11/14 07:13:57;;;;;;;49.25;28.00;;;6.50;99.90;;;;;;4936675;28;20046;-84
2022/11/14 07:16:31;;;;;;;46.88;27.15;;;8.10;99.90;;;;;;4969134;28;20057;-84
2022/11/14 07:18:58;;;;;;;46.95;26.27;;;6.50;99.90;;;;;;4945953;28;20058;-84
2022/11/14 07:21:28;;;;;;;47.80;26.83;;;6.90;99.90;;;;;;4947442;28;20070;-84
2022/11/14 07:23:55;;;;;;;45.92;25.30;;;7.00;99.90;;;;;;4952320;28;20043;-87
2022/11/14 07:26:21;;;;;;;44.40;25.15;;;7.80;99.90;;;;;;4952891;28;20054;-86
2022/11/14 07:28:46;;;;;;;47.60;25.50;;;7.00;99.90;;;;;;4952983;28;20046;-85
2022/11/14 07:31:15;;;;;;;45.90;26.67;;;7.20;99.90;;;;;;4935622;28;20027;-86
2022/11/14 07:33:42;;;;;;;48.03;26.85;;;6.50;99.90;;;;;;4950118;28;20047;-87
2022/11/14 07:36:09;;;;;;;49.92;27.27;;;7.90;99.90;;;;;;4952940;28;20046;-87
2022/11/14 07:38:36;;;;;;;49.90;28.10;;;6.50;99.90;;;;;;4952885;28;20051;-88
2022/11/14 07:41:03;;;;;;;49.63;28.13;;;6.50;99.90;;;;;;4969200;28;20508;-85
2022/11/14 07:43:29;;;;;;;47.75;27.60;;;6.60;99.90;;;;;;4951629;28;20078;-84
2022/11/14 07:45:59;;;;;;;44.88;26.73;;;6.50;99.90;;;;;;4937571;28;20415;-84
2022/11/14 07:48:25;;;;;;;45.78;27.58;;;7.90;99.90;;;;;;4953007;28;20392;-84
2022/11/14 07:50:50;;;;;;;47.17;25.80;;;6.80;99.90;;;;;;4936670;28;20041;-84
2022/11/14 07:53:16;;;;;;;46.72;26.58;;;7.60;99.90;;;;;;4936251;28;20035;-84
2022/11/14 07:55:42;;;;;;;44.17;25.63;;;7.00;99.90;;;;;;4968797;28;20459;-86
2022/11/14 07:58:08;;;;;;;48.15;26.23;;;7.70;99.90;;;;;;4952535;28;20042;-86
2022/11/14 08:00:34;;;;;;;47.20;25.35;;;6.60;99.90;;;;;;4919829;28;20061;-83
2022/11/14 08:03:01;;;;;;;42.38;25.58;;;;;;;;;;4936682;28;20057;-84
2022/11/14 08:05:26;;;;;;;44.08;26.05;;;6.50;99.90;;;;;;4952655;28;20463;-84
2022/11/14 08:07:52;;;;;;;46.00;26.77;;;7.80;99.90;;;;;;4932481;29;20372;-86
2022/11/14 08:10:19;;;;;;;47.90;26.08;;;6.50;99.90;;;;;;4934557;28;20143;-83
2022/11/14 08:12:45;;;;;;;44.67;26.52;;;6.40;99.90;;;;;;4921845;28;20042;-84
2022/11/14 08:15:12;;;;;;;48.00;27.00;;;6.50;99.90;;;;;;4952752;28;20039;-85
2022/11/14 08:17:38;;;;;;;44.83;25.52;;;6.50;99.90;;;;;;4953095;28;20054;-84
2022/11/14 08:20:06;;;;;;;46.90;25.65;;;6.50;99.90;;;;;;4965104;28;20051;-85
2022/11/14 08:22:32;;;;;;;45.88;27.25;;;6.60;99.90;;;;;;4969062;28;20045;-86
2022/11/14 08:24:57;;;;;;;43.75;25.50;;;6.50;99.90;;;;;;4951685;28;20034;-84
2022/11/14 08:27:23;;;;;;;47.53;26.13;;;8.00;99.90;;;;;;4937276;28;20126;-85
2022/11/14 08:29:50;;;;;;;45.30;26.15;;;6.60;99.90;;;;;;4935293;28;20042;-84
2022/11/14 08:32:16;;;;;;;43.35;25.45;;;6.60;99.90;;;;;;4948893;28;20620;-84
2022/11/14 08:34:42;;;;;;;41.42;24.92;;;6.60;99.90;;;;;;4935883;28;20046;-84
2022/11/14 08:37:08;;;;;;;46.80;26.63;;;6.60;99.90;;;;;;4935686;28;20053;-84
2022/11/14 08:39:34;;;;;;;43.00;25.60;;;6.70;99.90;;;;;;4921453;28;20362;-88
2022/11/14 08:42:00;;;;;;;45.13;26.02;;;6.60;99.90;;;;;;4937244;28;20070;-87
2022/11/14 08:44:26;;;;;;;46.10;26.58;;;6.70;99.90;;;;;;4955037;28;20042;-83
2022/11/14 08:46:52;;;;;;;44.22;25.63;;;6.80;99.90;;;;;;4919722;28;20030;-85
2022/11/14 08:49:17;;;;;;;45.05;26.73;;;7.40;99.90;;;;;;4940972;28;20047;-85
2022/11/14 08:51:43;;;;;;;43.53;25.83;;;7.60;99.90;;;;;;4956888;28;20051;-83
2022/11/14 08:54:09;;;;;;;43.78;25.83;;;6.80;99.90;;;;;;4941038;28;20038;-85
2022/11/14 08:56:35;;;;;;;44.95;26.58;;;6.70;99.90;;;;;;4940061;28;20050;-85
2022/11/14 08:59:04;;;;;;;46.83;26.75;;;8.00;99.90;;;;;;4940442;28;20039;-86
2022/11/14 09:01:31;;;;;;;46.30;27.67;;;6.80;99.90;;;;;;4957010;28;20042;-85
2022/11/14 09:03:57;;;;;;;45.65;26.48;;;7.60;99.90;;;;;;4955976;28;20439;-84
2022/11/14 09:06:23;;;;;;;44.35;25.85;;;8.20;99.90;;;;;;4947648;28;20179;-85
2022/11/14 09:08:48;;;;;;;44.40;26.98;;;6.80;99.90;;;;;;4954993;28;20039;-84
2022/11/14 09:11:14;;;;;;;43.90;26.88;;;7.10;99.90;;;;;;4955743;28;20046;-83
2022/11/14 09:13:40;;;;;;;40.83;25.98;;;7.10;99.90;;;;;;4940488;28;20042;-86
2022/11/14 09:16:06;;;;;;;44.72;26.52;;;6.90;99.90;;;;;;4952030;28;20069;-88
2022/11/14 09:18:31;;;;;;;46.05;26.48;;;7.00;99.90;;;;;;4955944;28;20038;-85
2022/11/14 09:21:02;;;;;;;46.78;27.13;;;7.00;99.90;;;;;;4943586;28;20050;-84
2022/11/14 09:23:28;;;;;;;46.15;26.30;;;7.00;99.90;;;;;;4942566;28;20045;-84
2022/11/14 09:25:55;;;;;;;45.58;26.17;;;8.30;99.90;;;;;;4940574;28;20046;-83
2022/11/14 09:28:22;;;;;;;46.08;27.77;;;7.10;99.90;;;;;;4971650;28;20038;-85
2022/11/14 09:30:49;;;;;;;45.03;27.20;;;;;;;;;;4957979;28;20101;-83
2022/11/14 09:33:14;;;;;;;46.53;27.67;;;6.30;99.90;;;;;;4958371;28;20114;-85
2022/11/14 09:35:40;;;;;;;46.15;27.58;;;7.30;99.90;;;;;;4992142;28;20128;-86
2022/11/14 09:38:10;;;;;;;44.40;27.33;;;7.20;99.90;;;;;;4956638;28;20073;-86
2022/11/14 09:40:57;;;;;;;45.38;26.67;;;7.10;99.90;;;;;;4940810;28;20038;-85
2022/11/14 09:44:03;;;;;;;47.20;27.20;;;7.20;99.90;;;;;;4958846;28;20050;-88
2022/11/14 09:46:39;;;;;;;43.53;26.13;;;7.30;99.90;;;;;;4948858;28;20057;-85
2022/11/14 09:49:17;;;;;;;44.10;25.27;;;7.30;99.90;;;;;;4963982;28;20046;-86
2022/11/14 09:51:50;;;;;;;39.08;25.00;;;7.30;99.90;;;;;;4972268;28;20082;-84
2022/11/14 09:54:33;;;;;;;39.80;25.45;;;8.70;99.90;;;;;;4965092;28;20042;-84
2022/11/14 09:56:59;;;;;;;41.47;25.23;;;7.40;99.90;;;;;;4991384;28;20046;-87
2022/11/14 09:59:26;;;;;;;42.38;25.20;;;7.40;99.90;;;;;;4974172;28;20034;-87
2022/11/14 10:02:33;;;;;;;38.65;24.73;;;9.10;99.90;;;;;;4956431;28;20037;-85
2022/11/14 10:05:26;;;;;;;42.33;25.65;;;7.50;99.90;;;;;;4941798;28;20054;-87
2022/11/14 10:08:16;;;;;;;42.30;24.23;;;7.60;99.90;;;;;;4973369;28;20541;-87
2022/11/14 10:11:00;;;;;;;39.85;24.60;;;7.60;99.90;;;;;;4949676;28;20056;-85
2022/11/14 10:13:34;;;;;;;44.58;25.52;;;7.60;99.90;;;;;;4974176;28;20049;-86
2022/11/14 10:16:20;;;;;;;39.85;24.55;;;7.60;99.90;;;;;;4957889;28;20088;-84
2022/11/14 10:19:07;;;;;;;41.63;25.40;;;8.60;99.90;;;;;;4950681;28;20058;-84
2022/11/14 10:21:50;;;;;;;37.92;24.42;;;7.50;99.90;;;;;;4958678;28;20074;-85
2022/11/14 10:24:37;;;;;;;40.88;25.67;;;7.60;99.90;;;;;;4957340;28;20053;-84
2022/11/14 10:27:08;;;;;;;38.78;24.67;;;7.60;99.90;;;;;;4958382;28;20105;-84
2022/11/14 10:29:56;;;;;;;36.78;23.95;;;8.40;99.90;;;;;;4958703;28;20399;-86
2022/11/14 10:32:47;;;;;;;40.10;26.23;;;7.60;99.90;;;;;;4989707;28;20070;-84
2022/11/14 10:35:21;;;;;;;39.78;24.33;;;9.10;99.90;;;;;;4956961;28;20125;-83
2022/11/14 10:38:17;;;;;;;40.20;25.30;;;7.60;99.90;;;;;;4973471;28;20073;-86
2022/11/14 10:40:42;;;;;;;39.60;23.75;;;7.60;99.90;;;;;;4957422;28;20050;-82
2022/11/14 10:43:17;;;;;;;38.38;24.65;;;8.20;99.90;;;;;;4971274;28;20042;-85
2022/11/14 10:45:52;;;;;;;37.53;25.17;;;7.70;99.90;;;;;;4954964;28;20045;-84
2022/11/14 10:48:30;;;;;;;39.60;24.42;;;7.70;99.90;;;;;;4972643;28;20045;-85
2022/11/14 10:50:58;;;;;;;38.60;24.65;;;8.10;99.90;;;;;;4973913;28;20126;-83
2022/11/14 10:53:37;;;;;;;39.13;23.95;;;7.80;99.90;;;;;;4955338;28;20049;-85
2022/11/14 10:56:03;;;;;;;39.55;25.00;;;7.80;99.90;;;;;;4972456;28;20538;-84
2022/11/14 10:58:29;;;;;;;40.60;25.48;;;7.90;99.90;;;;;;4955599;28;20034;-83
2022/11/14 11:00:54;;;;;;;39.25;24.50;;;9.00;99.90;;;;;;4957528;28;20456;-84
2022/11/14 11:03:40;;;;;;;40.90;25.58;;;7.90;99.90;;;;;;4952105;28;20043;-83
2022/11/14 11:06:24;;;;;;;39.30;25.20;;;8.10;99.90;;;;;;4971400;28;20117;-85
2022/11/14 11:11:36;;;;;;;38.10;24.10;;;8.60;99.90;;;;;;4957635;28;20042;-85
2022/11/14 11:14:02;;;;;;;36.78;23.95;;;8.20;99.90;;;;;;4938477;28;20037;-85
2022/11/14 11:16:28;;;;;;;35.85;23.80;;;9.90;99.90;;;;;;4954030;28;20105;-84
2022/11/14 11:19:23;;;;;;;36.28;24.17;;;8.60;99.90;;;;;;4957187;28;20041;-84
2022/11/14 11:21:50;;;;;;;37.20;24.02;;;8.80;99.90;;;;;;4957434;28;20465;-84
2022/11/14 11:24:36;;;;;;;37.15;24.38;;;8.00;99.90;;;;;;4967366;28;20049;-82
2022/11/14 11:27:17;;;;;;;35.35;22.65;;;8.10;99.90;;;;;;4969660;28;20046;-83
2022/11/14 11:29:43;;;;;;;38.03;23.23;;;8.10;99.90;;;;;;4957089;28;20455;-87
2022/11/14 11:32:09;;;;;;;38.75;23.27;;;8.00;99.90;;;;;;4939468;28;20045;-84
2022/11/14 11:34:35;;;;;;;35.60;23.42;;;8.70;99.90;;;;;;4925114;28;20627;-85
2022/11/14 11:37:23;;;;;;;38.28;23.95;;;8.40;99.90;;;;;;4972857;28;20044;-83
2022/11/14 11:39:55;;;;;;;37.83;24.13;;;8.30;99.90;;;;;;4987539;28;20038;-84
2022/11/14 11:42:32;;;;;;;35.55;22.83;;;8.30;99.90;;;;;;4973007;28;20100;-85
2022/11/14 11:45:01;;;;;;;35.63;23.25;;;8.50;99.90;;;;;;4954742;28;20050;-83
2022/11/14 11:47:31;;;;;;;35.22;23.27;;;8.40;99.90;;;;;;4972740;28;20498;-83
2022/11/14 11:50:01;;;;;;;38.83;25.65;;;9.30;99.90;;;;;;4971608;28;20065;-83
2022/11/14 11:52:44;;;;;;;39.85;25.00;;;8.80;99.90;;;;;;4990596;28;20066;-82
2022/11/14 11:55:22;;;;;;;36.00;23.92;;;8.40;99.90;;;;;;4958181;28;20068;-81
2022/11/14 11:57:56;;;;;;;35.90;22.73;;;8.50;99.90;;;;;;4956824;28;20037;-81
2022/11/14 12:00:22;;;;;;;35.08;22.83;;;8.50;99.90;;;;;;4990708;28;20101;-81
2022/11/14 12:02:51;;;;;;;34.13;22.92;;;8.60;99.90;;;;;;4941603;28;20073;-81
2022/11/14 12:05:54;;;;;;;37.08;23.38;;;8.70;99.90;;;;;;4958079;28;20038;-81
2022/11/14 12:08:38;;;;;;;34.90;23.60;;;8.80;99.90;;;;;;4954573;28;20069;-82
2022/11/14 12:11:10;;;;;;;36.15;23.65;;;8.80;99.90;;;;;;4954504;28;20042;-84
2022/11/14 12:13:38;;;;;;;36.70;23.13;;;8.90;99.90;;;;;;4963416;28;20054;-83
2022/11/14 12:16:17;;;;;;;39.05;24.17;;;9.00;99.90;;;;;;4968523;28;20280;-84
2022/11/14 12:19:04;;;;;;;35.47;22.88;;;9.60;99.90;;;;;;4954611;28;21810;-85
2022/11/14 12:22:02;;;;;;;33.22;21.60;;;9.10;99.90;;;;;;4971611;28;20050;-82
2022/11/14 12:25:07;;;;;;;35.03;21.90;;;9.10;99.90;;;;;;4957419;28;20204;-84
2022/11/14 12:27:42;;;;;;;38.33;23.23;;;9.20;99.90;;;;;;4959229;28;20097;-84
2022/11/14 12:30:16;;;;;;;34.65;23.30;;;9.30;99.90;;;;;;4955575;28;20038;-85
2022/11/14 12:32:48;;;;;;;34.53;22.23;;;9.30;99.90;;;;;;4954148;28;20034;-86
2022/11/14 12:35:20;;;;;;;34.70;23.20;;;9.30;99.90;;;;;;4985269;28;20570;-83
2022/11/14 12:37:48;;;;;;;37.47;24.27;;;9.30;99.90;;;;;;4973339;28;20043;-84
2022/11/14 12:40:31;;;;;;;40.45;25.00;;;10.60;99.90;;;;;;4970322;28;20495;-84
2022/11/14 12:42:58;;;;;;;37.45;24.73;;;9.40;99.90;;;;;;4957448;28;20046;-86
2022/11/14 12:45:39;;;;;;;39.35;24.85;;;9.40;99.90;;;;;;4972485;28;20128;-84
2022/11/14 12:48:20;;;;;;;33.22;21.90;;;10.60;99.90;;;;;;4972570;28;20108;-84
2022/11/14 12:50:45;;;;;;;35.47;23.15;;;9.40;99.90;;;;;;4972316;28;20038;-86